Time;durP1;ratioP1;P1;durP2;ratioP2;P2;SDS_P1;SDS_P2;PMS_P1;PMS_P2;Temp;Humidity;BMP_temperature;BMP_pressure;BME280_temperature;BME280_humidity;BME280_pressure;Samples;Min_cycle;Max_cycle;Signal;HPM_P1;HPM_P2
2023/01/06 00:01:34;;;;;;;38.53;18.23;;;;;;;9.07;100.00;101525.44;5033258;28;20042;-82
2023/01/06 00:04:02;;;;;;;48.50;19.45;;;;;;;9.06;100.00;101531.56;5034572;28;20057;-82
2023/01/06 00:06:30;;;;;;;44.08;18.13;;;;;;;9.07;100.00;101514.91;4996867;28;20053;-82
2023/01/06 00:09:01;;;;;;;37.97;17.58;;;;;;;9.07;100.00;101520.16;4968834;28;20041;-82
2023/01/06 00:11:29;;;;;;;42.10;17.88;;;;;;;9.07;100.00;101517.53;5009687;28;20065;-82
2023/01/06 00:13:58;;;;;;;38.70;18.17;;;;;;;9.08;100.00;101508.81;5009404;28;20407;-82
2023/01/06 00:16:26;;;;;;;35.33;16.80;;;;;;;9.07;100.00;101517.53;4993731;28;20049;-82
2023/01/06 00:18:58;;;;;;;41.92;18.60;;;;;;;9.08;100.00;101514.06;5009216;28;20049;-82
2023/01/06 00:21:26;;;;;;;37.50;17.85;;;;;;;9.07;100.00;101513.16;4984835;28;20053;-82
2023/01/06 00:23:54;;;;;;;42.45;17.73;;;;;;;9.06;100.00;101508.78;4970028;28;20064;-82
2023/01/06 00:26:21;;;;;;;40.53;16.92;;;;;;;9.07;100.00;101504.41;5011768;28;20518;-82
2023/01/06 00:28:54;;;;;;;40.30;17.20;;;;;;;9.07;100.00;101499.13;4992431;28;20052;-82
2023/01/06 00:31:21;;;;;;;34.53;15.40;;;;;;;9.07;100.00;101509.66;4987508;28;20050;-82
2023/01/06 00:33:49;;;;;;;41.95;16.52;;;;;;;9.08;100.00;101516.69;5010956;28;20050;-82
2023/01/06 00:36:16;;;;;;;34.38;14.77;;;;;;;9.10;100.00;101512.34;4999068;28;20045;-82
2023/01/06 00:38:43;;;;;;;33.63;13.77;;;;;;;9.11;100.00;101506.22;5008053;28;20129;-82
2023/01/06 00:44:00;;;;;;;32.90;10.52;;;;;;;9.12;100.00;101505.38;5016072;28;20061;-82
2023/01/06 00:46:30;;;;;;;35.60;11.63;;;;;;;9.11;100.00;101499.25;5006490;28;20053;-82
2023/01/06 00:48:59;;;;;;;31.92;11.70;;;;;;;9.12;100.00;101503.63;5015013;28;20041;-82
2023/01/06 00:51:37;;;;;;;43.33;12.63;;;;;;;9.13;100.00;101499.25;5012948;28;20037;-82
2023/01/06 00:54:06;;;;;;;27.40;10.43;;;;;;;9.13;100.00;101496.63;5013712;28;20050;-82
2023/01/06 00:56:39;;;;;;;29.65;10.43;;;;;;;9.13;100.00;101494.91;5007627;28;20049;-82
2023/01/06 00:59:08;;;;;;;37.15;10.63;;;;;;;9.14;100.00;101499.28;5015338;28;20057;-82
2023/01/06 01:01:37;;;;;;;36.85;10.60;;;;;;;9.14;100.00;101488.78;4973926;28;20058;-82
2023/01/06 01:04:06;;;;;;;34.00;10.77;;;;;;;9.15;100.00;101493.19;5007305;28;20037;-82
2023/01/06 01:06:35;;;;;;;42.00;11.18;;;;;;;9.16;100.00;101480.91;5007482;28;20042;-82
2023/01/06 01:09:04;;;;;;;31.75;10.35;;;;;;;9.17;100.00;101485.34;5014041;28;20046;-82
2023/01/06 01:14:19;;;;;;;35.95;9.90;;;;;;;9.17;100.00;101482.69;5006473;28;20053;-83
2023/01/06 01:16:47;;;;;;;28.02;9.68;;;;;;;9.17;100.00;101475.69;5006111;28;20049;-82
2023/01/06 01:19:15;;;;;;;39.15;10.02;;;;;;;9.17;100.00;101474.81;4993601;28;20050;-82
2023/01/06 01:21:45;;;;;;;29.38;9.65;;;;;;;9.18;100.00;101468.69;5011306;28;20051;-82
2023/01/06 01:24:13;;;;;;;27.00;9.07;;;;;;;9.19;100.00;101473.09;5018691;28;20049;-82
2023/01/06 01:26:41;;;;;;;33.83;10.15;;;;;;;9.19;100.00;101467.84;5003337;28;20046;-82
2023/01/06 01:29:12;;;;;;;38.58;10.88;;;;;;;9.20;100.00;101463.47;4998665;28;20483;-81
2023/01/06 01:31:40;;;;;;;30.75;10.65;;;;;;;9.18;100.00;101464.31;5012542;28;20061;-82
2023/01/06 01:34:10;;;;;;;25.13;9.50;;;;;;;9.20;100.00;101471.34;5011866;28;20053;-82
2023/01/06 01:36:40;;;;;;;22.42;9.00;;;;;;;9.20;100.00;101460.81;5014520;28;20054;-82
2023/01/06 01:39:08;;;;;;;19.30;9.32;;;;;;;9.21;100.00;101463.50;4985576;28;20051;-81
2023/01/06 01:41:35;;;;;;;23.95;8.40;;;;;;;9.21;100.00;101468.75;4965324;28;20746;-82
2023/01/06 01:44:41;;;;;;;21.38;7.35;;;;;;;9.21;100.00;101459.97;5031122;28;20050;-82
2023/01/06 01:47:10;;;;;;;17.55;7.20;;;;;;;9.20;100.00;101466.97;5031094;28;20049;-81
2023/01/06 01:49:48;;;;;;;21.02;6.25;;;;;;;9.21;100.00;101462.63;4986874;28;20952;-81
2023/01/06 01:52:17;;;;;;;22.63;5.93;;;;;;;9.20;100.00;101463.47;5014411;28;20037;-82
2023/01/06 01:54:46;;;;;;;23.10;6.35;;;;;;;9.20;100.00;101463.47;4997045;28;20057;-82
2023/01/06 01:57:20;;;;;;;15.65;6.40;;;;;;;9.21;100.00;101459.97;4988757;28;20045;-82
2023/01/06 01:59:48;;;;;;;11.25;5.45;;;;;;;9.21;100.00;101447.72;5008574;28;20072;-82
2023/01/06 02:02:17;;;;;;;17.95;7.07;;;;;;;9.22;100.00;101444.22;4992786;28;20042;-82
2023/01/06 02:04:50;;;;;;;20.73;6.15;;;;;;;9.22;100.00;101440.69;5022738;28;20053;-82
2023/01/06 02:07:22;;;;;;;15.40;5.82;;;;;;;9.22;100.00;101436.31;5008590;28;20065;-82
2023/01/06 02:10:04;;;;;;;10.90;5.25;;;;;;;9.23;100.00;101434.59;4991094;28;20060;-82
2023/01/06 02:12:34;;;;;;;16.83;5.40;;;;;;;9.23;100.00;101435.47;5011731;28;20038;-82
2023/01/06 02:15:01;;;;;;;17.42;5.78;;;;;;;9.22;100.00;101436.31;4985696;28;20042;-82
2023/01/06 02:17:50;;;;;;;11.50;5.22;;;;;;;9.23;100.00;101438.09;4990486;28;20045;-82
2023/01/06 02:20:45;;;;;;;14.32;5.28;;;;;;;9.24;100.00;101444.25;5005663;28;20050;-81
2023/01/06 02:23:38;;;;;;;13.38;5.57;;;;;;;9.23;100.00;101435.47;5023720;28;20050;-81
2023/01/06 02:26:34;;;;;;;16.73;4.72;;;;;;;9.23;100.00;101419.69;5026713;28;20054;-82
2023/01/06 02:29:07;;;;;;;13.32;5.38;;;;;;;9.23;100.00;101406.53;4988313;28;20383;-83
2023/01/06 02:31:45;;;;;;;13.18;4.30;;;;;;;9.24;100.00;101410.94;5010024;28;20062;-82
2023/01/06 02:34:22;;;;;;;17.42;4.60;;;;;;;9.23;100.00;101406.53;5010226;28;20046;-81
2023/01/06 02:37:13;;;;;;;12.57;4.57;;;;;;;9.24;100.00;101404.78;5012678;28;20053;-82
2023/01/06 02:40:00;;;;;;;11.88;4.95;;;;;;;9.25;100.00;101401.31;4983644;28;20061;-81
2023/01/06 02:42:48;;;;;;;10.10;5.80;;;;;;;9.24;100.00;101403.03;5013266;28;20484;-82
2023/01/06 02:45:36;;;;;;;18.88;5.43;;;;;;;9.24;100.00;101379.38;4976031;28;20069;-82
2023/01/06 02:48:27;;;;;;;11.35;5.63;;;;;;;9.23;100.00;101390.78;4978205;28;20487;-82
2023/01/06 02:51:14;;;;;;;8.32;5.88;;;;;;;9.24;100.00;101389.00;4988191;28;20045;-82
2023/01/06 02:53:47;;;;;;;12.40;6.20;;;;;;;9.23;100.00;101390.78;5011909;28;20049;-82
2023/01/06 02:56:19;;;;;;;12.45;5.50;;;;;;;9.22;100.00;101367.06;5025402;28;20050;-81
2023/01/06 02:58:56;;;;;;;9.82;5.88;;;;;;;9.22;100.00;101372.31;5012938;28;20112;-81
2023/01/06 03:01:31;;;;;;;12.57;5.82;;;;;;;9.21;100.00;101360.06;4974068;28;20045;-80
2023/01/06 03:04:03;;;;;;;17.92;5.70;;;;;;;9.20;100.00;101350.38;5006833;28;20054;-81
2023/01/06 03:06:34;;;;;;;15.57;5.93;;;;;;;9.19;100.00;101344.25;5002040;28;20061;-83
2023/01/06 03:09:04;;;;;;;14.68;5.68;;;;;;;9.19;100.00;101352.13;5009607;28;20052;-80
2023/01/06 03:11:38;;;;;;;9.98;5.40;;;;;;;9.18;100.00;101350.34;4999183;28;20702;-81
2023/01/06 03:14:24;;;;;;;15.43;5.33;;;;;;;9.17;100.00;101336.31;4996558;28;20049;-81
2023/01/06 03:16:53;;;;;;;12.40;5.25;;;;;;;9.19;100.00;101349.50;5010182;28;20046;-82
2023/01/06 03:19:22;;;;;;;11.65;5.30;;;;;;;9.20;100.00;101347.75;4987085;28;20416;-81
2023/01/06 03:21:51;;;;;;;13.05;5.60;;;;;;;9.21;100.00;101339.03;4983048;28;20508;-82
2023/01/06 03:24:21;;;;;;;7.28;4.50;;;;;;;9.21;100.00;101324.13;4983444;28;20054;-83
2023/01/06 03:26:52;;;;;;;9.50;5.20;;;;;;;9.21;100.00;101324.13;4978938;28;20083;-83
2023/01/06 03:29:22;;;;;;;9.95;4.65;;;;;;;9.20;100.00;101330.22;5025412;28;20054;-82
2023/01/06 03:32:15;;;;;;;6.20;4.53;;;;;;;9.20;100.00;101334.59;4969308;28;20514;-82
2023/01/06 03:35:11;;;;;;;7.97;4.13;;;;;;;9.19;100.00;101328.47;4995447;28;20411;-82
2023/01/06 03:37:50;;;;;;;12.30;4.70;;;;;;;9.18;100.00;101335.44;5001876;28;20062;-83
2023/01/06 03:40:28;;;;;;;12.95;5.00;;;;;;;9.20;100.00;101331.97;5006729;28;20058;-82
2023/01/06 03:43:11;;;;;;;12.52;4.95;;;;;;;9.20;100.00;101316.19;5024209;28;20057;-82
2023/01/06 03:46:10;;;;;;;11.85;4.25;;;;;;;9.19;100.00;101304.81;4999882;28;20048;-83
2023/01/06 03:49:15;;;;;;;9.43;4.57;;;;;;;9.18;100.00;101303.03;5010841;28;20058;-82
2023/01/06 03:51:47;;;;;;;10.57;4.25;;;;;;;9.18;100.00;101297.75;4996326;28;20049;-83
2023/01/06 03:54:23;;;;;;;7.82;4.57;;;;;;;9.18;100.00;101300.41;4998316;28;20030;-83
2023/01/06 03:57:07;;;;;;;12.77;5.47;;;;;;;9.17;100.00;101286.38;5022652;28;20054;-82
2023/01/06 03:59:42;;;;;;;7.82;4.45;;;;;;;9.16;100.00;101255.66;4990681;28;20050;-83
2023/01/06 04:02:12;;;;;;;11.48;4.88;;;;;;;9.16;100.00;101242.50;4982745;28;20048;-82
2023/01/06 04:04:40;;;;;;;7.18;4.60;;;;;;;9.15;100.00;101246.03;5022936;28;20054;-83
2023/01/06 04:07:10;;;;;;;8.93;4.97;;;;;;;9.14;100.00;101246.88;4981521;28;20049;-82
2023/01/06 04:09:40;;;;;;;7.05;4.72;;;;;;;9.15;100.00;101253.03;4984582;28;20045;-81
2023/01/06 04:14:54;;;;;;;7.70;4.43;;;;;;;9.14;100.00;101264.41;5000185;28;20058;-83
2023/01/06 04:17:21;;;;;;;7.07;4.50;;;;;;;9.15;100.00;101253.03;4969669;28;20065;-83
2023/01/06 04:19:50;;;;;;;10.32;4.85;;;;;;;9.16;100.00;101246.91;5018030;28;20049;-81
2023/01/06 04:22:19;;;;;;;6.90;5.13;;;;;;;9.16;100.00;101244.28;4983718;28;20057;-81
2023/01/06 04:24:46;;;;;;;7.78;4.45;;;;;;;9.19;100.00;101246.97;5004701;28;20068;-81
2023/01/06 04:27:13;;;;;;;6.40;4.78;;;;;;;9.20;100.00;101230.31;4992423;28;20054;-81
2023/01/06 04:29:41;;;;;;;8.88;4.57;;;;;;;9.20;100.00;101232.06;5011574;28;20076;-81
2023/01/06 04:32:09;;;;;;;5.78;5.10;;;;;;;9.21;100.00;101229.47;4994483;28;20065;-80
2023/01/06 04:34:36;;;;;;;8.82;5.45;;;;;;;9.21;100.00;101216.31;5007765;28;20072;-81
2023/01/06 04:37:04;;;;;;;10.25;5.40;;;;;;;9.21;100.00;101225.94;5001167;28;20038;-81
2023/01/06 04:39:31;;;;;;;10.77;5.95;;;;;;;9.21;100.00;101224.19;4990341;28;20665;-82
2023/01/06 04:42:01;;;;;;;5.68;5.00;;;;;;;9.21;100.00;101226.81;5012189;28;20499;-82
2023/01/06 04:44:29;;;;;;;7.68;5.63;;;;;;;9.21;100.00;101221.56;4993716;28;20046;-82
2023/01/06 04:46:56;;;;;;;5.32;4.65;;;;;;;9.22;100.00;101222.44;5011729;28;20053;-81
2023/01/06 04:49:24;;;;;;;8.32;5.03;;;;;;;9.21;100.00;101223.31;4991989;28;20061;-81
2023/01/06 04:51:51;;;;;;;9.00;5.13;;;;;;;9.21;100.00;101211.03;5009744;28;20053;-81
2023/01/06 04:54:19;;;;;;;6.88;5.00;;;;;;;9.22;100.00;101204.91;5025376;28;20053;-80
2023/01/06 04:56:46;;;;;;;10.27;4.93;;;;;;;9.22;100.00;101196.16;5015900;28;20046;-81
2023/01/06 04:59:14;;;;;;;6.20;4.95;;;;;;;9.22;100.00;101190.88;4993942;28;20529;-81
2023/01/06 05:01:41;;;;;;;6.20;4.80;;;;;;;9.22;100.00;101186.50;4994796;28;20050;-79
2023/01/06 05:04:09;;;;;;;5.72;4.53;;;;;;;9.21;100.00;101183.88;4980532;28;20046;-83
2023/01/06 05:06:38;;;;;;;8.27;4.80;;;;;;;9.20;100.00;101172.44;4975165;28;20483;-81
2023/01/06 05:09:06;;;;;;;6.57;4.43;;;;;;;9.19;100.00;101170.69;4997710;28;20061;-83
2023/01/06 05:11:33;;;;;;;5.13;3.60;;;;;;;9.16;100.00;101168.91;5007642;28;20054;-81
2023/01/06 05:14:01;;;;;;;6.35;4.07;;;;;;;9.14;100.00;101172.38;5006272;28;20415;-81
2023/01/06 05:16:31;;;;;;;5.18;3.60;;;;;;;9.15;100.00;101176.78;4991797;28;20243;-81
2023/01/06 05:19:00;;;;;;;8.20;3.50;;;;;;;9.14;100.00;101182.88;4985044;28;20077;-81
2023/01/06 05:21:29;;;;;;;4.97;3.40;;;;;;;9.14;100.00;101173.25;4997647;28;20057;-81
2023/01/06 05:23:59;;;;;;;4.95;3.33;;;;;;;9.16;100.00;101168.91;5001304;28;20061;-80
2023/01/06 05:26:28;;;;;;;4.97;3.35;;;;;;;9.16;100.00;101166.25;5027238;28;20053;-80
2023/01/06 05:28:55;;;;;;;5.10;3.00;;;;;;;9.18;100.00;101171.56;5003207;28;20395;-80
2023/01/06 05:31:23;;;;;;;5.90;2.92;;;;;;;9.17;100.00;101160.16;4975869;28;20054;-80
2023/01/06 05:33:50;;;;;;;6.07;3.00;;;;;;;9.18;100.00;101155.78;4999305;28;20045;-81
2023/01/06 05:36:18;;;;;;;2.67;2.47;;;;;;;9.21;100.00;101149.69;5008717;28;20053;-81
2023/01/06 05:38:52;;;;;;;5.00;2.95;;;;;;;9.25;100.00;101156.75;4987312;28;20046;-81
2023/01/06 05:41:19;;;;;;;3.78;2.95;;;;;;;9.26;100.00;101148.91;4990988;28;20985;-81
2023/01/06 05:43:47;;;;;;;2.80;2.60;;;;;;;9.28;100.00;101149.78;4987594;28;20056;-81
2023/01/06 05:46:14;;;;;;;2.70;2.50;;;;;;;9.30;100.00;101140.19;5008956;28;20053;-83
2023/01/06 05:48:42;;;;;;;3.92;2.67;;;;;;;9.31;100.00;101138.41;4981861;28;20046;-83
2023/01/06 05:51:12;;;;;;;4.80;3.53;;;;;;;9.32;100.00;101132.31;5009010;28;20049;-81
2023/01/06 05:53:42;;;;;;;4.07;3.30;;;;;;;9.32;100.00;101137.56;5013785;28;20050;-82
2023/01/06 05:56:12;;;;;;;5.53;4.03;;;;;;;9.33;100.00;101139.31;5001837;28;20046;-81
2023/01/06 05:58:44;;;;;;;5.07;4.47;;;;;;;9.32;100.00;101130.56;5010928;28;20058;-82
2023/01/06 06:01:20;;;;;;;5.25;4.72;;;;;;;9.31;100.00;101128.78;5002509;28;20053;-82
2023/01/06 06:03:49;;;;;;;6.40;5.55;;;;;;;9.32;100.00;101117.41;4983883;28;20488;-82
2023/01/06 06:06:18;;;;;;;4.85;4.43;;;;;;;9.31;100.00;101123.50;5007006;28;20050;-81
2023/01/06 06:08:45;;;;;;;8.20;5.18;;;;;;;9.31;100.00;101130.53;4983840;28;20056;-82
2023/01/06 06:11:15;;;;;;;7.80;5.65;;;;;;;9.30;100.00;101124.41;4989133;28;20050;-81
2023/01/06 06:13:48;;;;;;;6.87;6.17;;;;;;;9.28;100.00;101115.59;4992631;28;20046;-83
2023/01/06 06:16:17;;;;;;;11.82;6.65;;;;;;;9.26;100.00;101122.59;4998543;28;20058;-82
2023/01/06 06:18:51;;;;;;;5.97;5.47;;;;;;;9.23;100.00;101127.81;5007184;28;20054;-82
2023/01/06 06:21:21;;;;;;;7.55;6.75;;;;;;;9.20;100.00;101127.75;4973344;28;20052;-79
2023/01/06 06:23:50;;;;;;;8.25;7.35;;;;;;;9.18;100.00;101126.84;4999309;28;20038;-82
2023/01/06 06:26:18;;;;;;;7.85;6.82;;;;;;;9.14;100.00;101120.66;4992606;28;20049;-81
2023/01/06 06:28:45;;;;;;;8.98;7.32;;;;;;;9.11;100.00;101111.84;4996763;28;20061;-81
2023/01/06 06:31:22;;;;;;;7.82;7.13;;;;;;;9.09;100.00;101109.22;4997908;28;20053;-81
2023/01/06 06:33:52;;;;;;;7.88;7.13;;;;;;;9.05;100.00;101103.88;5014216;28;20057;-82
2023/01/06 06:36:20;;;;;;;13.05;7.38;;;;;;;9.03;100.00;101108.25;4976191;28;20049;-82
2023/01/06 06:38:50;;;;;;;6.93;6.35;;;;;;;9.01;100.00;101109.97;5014302;28;20057;-81
2023/01/06 06:41:18;;;;;;;10.73;6.75;;;;;;;8.98;100.00;101103.81;4988143;28;20416;-81
2023/01/06 06:43:48;;;;;;;8.43;6.60;;;;;;;8.97;100.00;101104.66;5003352;28;20057;-80
2023/01/06 06:46:16;;;;;;;10.55;7.28;;;;;;;8.96;100.00;101102.91;5001971;28;20376;-82
2023/01/06 06:48:43;;;;;;;7.80;7.00;;;;;;;8.95;100.00;101102.88;4996774;28;20057;-81
2023/01/06 06:51:15;;;;;;;7.70;7.07;;;;;;;8.95;100.00;101108.16;5003819;28;20045;-81
2023/01/06 06:53:43;;;;;;;11.45;6.90;;;;;;;8.94;100.00;101109.91;4972250;28;20054;-81
2023/01/06 06:56:13;;;;;;;10.55;7.07;;;;;;;8.92;100.00;101098.47;4996972;28;20039;-80
2023/01/06 06:58:41;;;;;;;11.13;7.60;;;;;;;8.93;100.00;101100.22;5006169;28;20683;-81
2023/01/06 07:01:11;;;;;;;8.23;6.35;;;;;;;8.92;100.00;101100.19;5010521;28;20475;-80
2023/01/06 07:03:39;;;;;;;7.75;6.95;;;;;;;8.92;100.00;101101.09;4996284;28;20054;-82
2023/01/06 07:06:10;;;;;;;9.43;7.72;;;;;;;8.91;100.00;101109.84;5005702;28;20046;-80
2023/01/06 07:08:37;;;;;;;8.13;7.35;;;;;;;8.90;100.00;101108.09;4979348;28;20510;-81
2023/01/06 07:11:04;;;;;;;7.30;6.70;;;;;;;8.90;100.00;101110.72;4992277;28;20046;-82
2023/01/06 07:13:32;;;;;;;7.95;7.20;;;;;;;8.89;100.00;101101.06;4966679;28;20582;-81
2023/01/06 07:15:59;;;;;;;8.85;7.95;;;;;;;8.89;100.00;101110.69;5011352;28;20046;-83
2023/01/06 07:18:26;;;;;;;9.65;7.97;;;;;;;8.87;100.00;101123.81;4983726;28;20137;-81
2023/01/06 07:20:54;;;;;;;8.80;7.90;;;;;;;8.84;100.00;101118.50;5005334;28;20586;-81
2023/01/06 07:23:22;;;;;;;9.27;7.50;;;;;;;8.84;100.00;101129.00;4971007;28;20042;-81
2023/01/06 07:25:54;;;;;;;8.60;7.72;;;;;;;8.81;100.00;101126.34;4998024;28;20049;-81
2023/01/06 07:28:22;;;;;;;10.10;8.55;;;;;;;8.81;100.00;101134.22;4998271;28;20038;-81
2023/01/06 07:30:50;;;;;;;7.82;7.07;;;;;;;8.80;100.00;101131.56;5002902;28;20046;-81
2023/01/06 07:33:18;;;;;;;7.55;6.85;;;;;;;8.78;100.00;101128.91;4996001;28;20108;-81
2023/01/06 07:35:46;;;;;;;7.30;6.50;;;;;;;8.78;100.00;101142.94;5000815;28;20057;-82
2023/01/06 07:38:14;;;;;;;6.40;5.30;;;;;;;8.80;100.00;101144.72;4953628;28;20049;-80
2023/01/06 07:40:41;;;;;;;8.02;5.63;;;;;;;8.80;100.00;101134.22;4971093;28;20057;-81
2023/01/06 07:43:11;;;;;;;5.75;4.97;;;;;;;8.81;100.00;101149.09;4981651;28;20053;-81
2023/01/06 07:45:38;;;;;;;6.05;4.50;;;;;;;8.83;100.00;101157.88;4973575;28;20042;-81
2023/01/06 07:48:06;;;;;;;8.48;5.93;;;;;;;8.83;100.00;101158.78;4993475;28;20050;-80
2023/01/06 07:50:33;;;;;;;4.22;3.72;;;;;;;8.83;100.00;101169.31;4998777;28;20042;-81
2023/01/06 07:53:01;;;;;;;4.00;3.28;;;;;;;8.84;100.00;101171.06;4989154;28;20076;-81
2023/01/06 07:55:29;;;;;;;3.00;2.80;;;;;;;8.85;100.00;101191.22;4961690;28;20045;-81
2023/01/06 07:58:00;;;;;;;3.67;2.95;;;;;;;8.87;100.00;101200.03;4988182;28;20050;-81
2023/01/06 08:00:27;;;;;;;3.30;2.42;;;;;;;8.87;100.00;101186.00;4988483;28;20046;-81
2023/01/06 08:02:54;;;;;;;2.13;1.92;;;;;;;8.88;100.00;101214.03;5005058;28;20054;-81
2023/01/06 08:05:21;;;;;;;3.83;2.28;;;;;;;8.88;100.00;101228.06;4985068;28;20046;-80
2023/01/06 08:07:49;;;;;;;6.13;2.13;;;;;;;8.87;100.00;101226.31;5007582;28;20068;-81
2023/01/06 08:10:16;;;;;;;3.92;1.88;;;;;;;8.86;100.00;101232.41;4961523;28;20049;-80
2023/01/06 08:12:44;;;;;;;3.83;2.05;;;;;;;8.83;100.00;101236.72;5000317;28;20053;-80
2023/01/06 08:15:11;;;;;;;4.07;1.80;;;;;;;8.76;100.00;101241.00;5006194;28;20045;-80
2023/01/06 08:17:38;;;;;;;3.20;1.48;;;;;;;8.70;100.00;101246.16;5006572;28;20054;-80
2023/01/06 08:20:06;;;;;;;4.40;1.60;;;;;;;8.69;100.00;101257.50;4983733;28;20499;-81
2023/01/06 08:22:33;;;;;;;4.70;1.80;;;;;;;8.65;100.00;101276.72;4994315;28;20030;-80
2023/01/06 08:25:00;;;;;;;9.13;1.98;;;;;;;8.57;100.00;101272.19;4996045;28;20050;-81
2023/01/06 08:27:28;;;;;;;3.08;1.40;;;;;;;8.52;100.00;101300.13;4976566;28;20049;-81
2023/01/06 08:29:55;;;;;;;5.28;1.63;;;;;;;8.44;100.00;101296.47;4983142;28;20077;-81
2023/01/06 08:32:23;;;;;;;5.55;1.10;;;;;;;8.37;100.00;101307.69;4962956;28;20062;-80
2023/01/06 08:34:50;;;;;;;1.88;1.15;;;;;;;8.32;100.00;101311.97;4988999;28;20038;-81
2023/01/06 08:37:18;;;;;;;3.33;0.88;;;;;;;8.20;100.00;101308.25;4977199;28;20054;-81
2023/01/06 08:39:45;;;;;;;2.10;0.75;;;;;;;8.12;100.00;101308.94;5023329;28;20045;-81
2023/01/06 08:42:12;;;;;;;0.77;0.70;;;;;;;8.02;100.00;101307.84;4961637;28;20030;-81
2023/01/06 08:44:40;;;;;;;0.80;0.80;;;;;;;7.95;100.00;101322.56;5013558;28;20058;-81
2023/01/06 08:47:10;;;;;;;2.90;0.80;;;;;;;7.89;100.00;101322.44;4978409;28;20045;-80
2023/01/06 08:49:38;;;;;;;1.45;0.70;;;;;;;7.81;100.00;101330.16;5016671;28;20057;-80
2023/01/06 08:52:05;;;;;;;1.38;0.60;;;;;;;7.78;100.00;101337.94;4972516;28;20046;-80
2023/01/06 08:54:32;;;;;;;3.13;1.02;;;;;;;7.75;100.00;101339.63;4982665;28;20407;-81
2023/01/06 08:57:00;;;;;;;2.33;1.17;;;;;;;7.70;100.00;101336.03;4992342;28;20625;-81
2023/01/06 08:59:27;;;;;;;2.92;1.55;;;;;;;7.68;100.00;101341.22;5002510;28;20049;-81
2023/01/06 09:01:54;;;;;;;5.07;1.15;;;;;;;7.63;100.00;101345.47;4992510;28;20765;-81
2023/01/06 09:04:23;;;;;;;2.20;0.80;;;;;;;7.61;100.00;101352.44;5007787;28;20053;-81
2023/01/06 09:06:50;;;;;;;3.08;0.85;;;;;;;7.62;100.00;101354.22;5013425;28;20050;-80
2023/01/06 09:09:17;;;;;;;3.85;0.98;;;;;;;7.60;100.00;101366.41;4998425;28;23543;-80
2023/01/06 09:11:45;;;;;;;1.80;0.90;;;;;;;7.57;100.00;101376.81;5008022;28;20708;-80
2023/01/06 09:14:13;;;;;;;4.32;1.05;;;;;;;7.55;100.00;101371.53;4930737;28;24365;-80
2023/01/06 09:16:41;;;;;;;2.70;0.98;;;;;;;7.53;100.00;101375.84;4996172;28;20484;-82
2023/01/06 09:19:09;;;;;;;4.93;1.08;;;;;;;7.53;100.00;101378.47;5023117;28;20113;-81
2023/01/06 09:21:37;;;;;;;6.55;1.38;;;;;;;7.52;100.00;101389.78;5025094;28;20052;-82
2023/01/06 09:24:05;;;;;;;6.85;1.23;;;;;;;7.52;100.00;101391.53;5000160;28;20050;-81
2023/01/06 09:26:33;;;;;;;7.88;1.33;;;;;;;7.53;100.00;101409.06;4994194;28;20050;-81
2023/01/06 09:29:00;;;;;;;6.05;1.60;;;;;;;7.54;100.00;101402.94;4960589;28;20042;-80
2023/01/06 09:31:27;;;;;;;4.90;1.10;;;;;;;7.54;100.00;101410.81;4984419;28;20418;-82
2023/01/06 09:33:55;;;;;;;4.05;1.27;;;;;;;7.56;100.00;101411.75;5009557;28;20045;-80
2023/01/06 09:36:23;;;;;;;4.30;1.25;;;;;;;7.57;100.00;101424.03;4994052;28;20049;-81
2023/01/06 09:38:50;;;;;;;10.18;1.35;;;;;;;7.58;100.00;101416.19;4998444;28;20060;-81
2023/01/06 09:41:27;;;;;;;7.40;1.23;;;;;;;7.63;100.00;101423.28;5004591;28;20045;-81
2023/01/06 09:44:06;;;;;;;5.28;1.83;;;;;;;7.64;100.00;101425.94;4981911;28;20723;-81
2023/01/06 09:46:37;;;;;;;4.72;1.65;;;;;;;7.67;100.00;101438.25;4987253;28;20508;-82
2023/01/06 09:49:32;;;;;;;7.55;1.80;;;;;;;7.70;100.00;101431.34;5022584;28;20057;-81
2023/01/06 09:52:25;;;;;;;8.70;1.52;;;;;;;7.75;100.00;101450.72;5006963;28;20060;-81
2023/01/06 09:55:24;;;;;;;10.73;1.95;;;;;;;7.78;100.00;101455.13;4993854;28;20054;-81
2023/01/06 09:58:09;;;;;;;11.80;1.95;;;;;;;7.81;100.00;101457.84;5001059;28;20115;-80
2023/01/06 10:00:46;;;;;;;14.80;3.05;;;;;;;7.86;100.00;101460.56;4975189;28;20049;-82
2023/01/06 10:03:23;;;;;;;4.90;2.08;;;;;;;7.91;100.00;101462.44;5002231;28;20034;-82
2023/01/06 10:06:29;;;;;;;8.23;2.22;;;;;;;7.98;100.00;101468.75;5000252;28;20053;-81
2023/01/06 10:08:56;;;;;;;7.68;2.45;;;;;;;8.04;100.00;101466.25;5020225;28;20057;-81
2023/01/06 10:11:32;;;;;;;9.55;1.40;;;;;;;8.12;100.00;101466.44;4995778;28;20045;-80
2023/01/06 10:14:24;;;;;;;6.90;2.33;;;;;;;8.16;100.00;101479.66;5018864;28;20049;-80
2023/01/06 10:17:14;;;;;;;9.00;2.10;;;;;;;8.19;100.00;101479.72;4967080;28;20049;-80
2023/01/06 10:19:48;;;;;;;10.38;1.73;;;;;;;8.19;100.00;101477.13;5003628;28;20045;-80
2023/01/06 10:22:35;;;;;;;8.60;1.48;;;;;;;8.16;100.00;101495.41;5017079;28;20046;-81
2023/01/06 10:25:31;;;;;;;7.13;1.33;;;;;;;8.15;100.00;101498.91;5001966;28;20050;-81
2023/01/06 10:28:18;;;;;;;9.50;2.00;;;;;;;8.21;100.00;101492.91;4989755;28;20037;-81
2023/01/06 10:30:51;;;;;;;9.82;2.28;;;;;;;8.23;100.00;101485.06;4990982;28;20064;-81
2023/01/06 10:33:24;;;;;;;11.57;1.75;;;;;;;8.24;100.00;101489.44;4997677;28;20050;-79
2023/01/06 10:35:58;;;;;;;4.15;1.45;;;;;;;8.28;100.00;101501.78;4991947;28;20252;-81
2023/01/06 10:38:34;;;;;;;7.70;1.42;;;;;;;8.30;100.00;101507.97;4992429;28;20053;-80
2023/01/06 10:41:14;;;;;;;5.70;1.45;;;;;;;8.31;100.00;101496.63;5000071;28;20060;-81
2023/01/06 10:43:42;;;;;;;7.50;2.15;;;;;;;8.34;100.00;101501.97;5001379;28;20049;-80
2023/01/06 10:46:09;;;;;;;6.65;1.83;;;;;;;8.37;100.00;101495.03;4929055;28;20058;-80
2023/01/06 10:48:38;;;;;;;7.82;1.80;;;;;;;8.36;100.00;101495.88;4991988;28;20521;-79
2023/01/06 10:51:30;;;;;;;10.63;1.73;;;;;;;8.38;100.00;101488.91;4997985;28;20395;-79
2023/01/06 10:54:02;;;;;;;8.02;1.98;;;;;;;8.42;100.00;101495.16;4989999;28;20050;-81
2023/01/06 10:56:31;;;;;;;10.38;2.08;;;;;;;8.42;100.00;101489.91;4995815;28;20045;-81
2023/01/06 10:59:05;;;;;;;7.20;1.73;;;;;;;8.44;100.00;101487.31;4997291;28;20048;-80
2023/01/06 11:01:33;;;;;;;7.65;1.75;;;;;;;8.42;100.00;101491.66;4976866;28;20080;-80
2023/01/06 11:04:10;;;;;;;10.65;1.80;;;;;;;8.42;100.00;101482.03;5004018;28;20049;-81
2023/01/06 11:06:50;;;;;;;6.60;1.40;;;;;;;8.48;100.00;101484.78;4999324;28;20400;-80
2023/01/06 11:09:35;;;;;;;14.45;1.77;;;;;;;8.51;100.00;101482.22;4993797;28;20042;-79
2023/01/06 11:12:13;;;;;;;8.88;1.48;;;;;;;8.55;100.00;101484.06;5002858;28;20045;-81
2023/01/06 11:14:41;;;;;;;6.38;1.60;;;;;;;8.57;100.00;101489.38;5017908;28;20050;-80
2023/01/06 11:17:14;;;;;;;5.00;1.55;;;;;;;8.59;100.00;101491.16;4980199;28;20041;-79
2023/01/06 11:19:45;;;;;;;10.90;2.63;;;;;;;8.61;100.00;101479.81;5013226;28;20056;-80
2023/01/06 11:22:34;;;;;;;7.82;1.75;;;;;;;8.61;100.00;101499.06;5011218;28;20045;-81
2023/01/06 11:25:28;;;;;;;11.32;1.90;;;;;;;8.62;100.00;101485.09;5005047;28;20058;-81
2023/01/06 11:28:18;;;;;;;5.75;1.92;;;;;;;8.66;100.00;101480.78;4990042;28;20400;-80
2023/01/06 11:30:52;;;;;;;9.68;2.15;;;;;;;8.63;100.00;101486.84;5014018;28;20053;-80
2023/01/06 11:33:24;;;;;;;14.93;2.08;;;;;;;8.64;100.00;101478.13;4973387;28;20041;-80
2023/01/06 11:35:54;;;;;;;5.60;1.55;;;;;;;8.69;100.00;101481.72;4994563;28;20124;-81
2023/01/06 11:38:21;;;;;;;10.38;2.40;;;;;;;8.75;100.00;101486.22;5006959;28;20041;-80
2023/01/06 11:40:51;;;;;;;10.05;1.63;;;;;;;8.76;100.00;101480.13;4987360;28;20058;-81
2023/01/06 11:43:27;;;;;;;7.45;2.10;;;;;;;8.77;100.00;101476.63;4992759;28;20046;-80
2023/01/06 11:46:00;;;;;;;8.40;1.50;;;;;;;8.79;100.00;101482.84;4977015;28;20054;-82
2023/01/06 11:48:48;;;;;;;6.43;1.80;;;;;;;8.75;100.00;101475.72;4984601;28;20108;-81
2023/01/06 11:51:41;;;;;;;6.68;2.15;;;;;;;8.70;100.00;101464.25;4996982;28;20472;-82
2023/01/06 11:54:31;;;;;;;8.13;1.80;;;;;;;8.68;100.00;101474.72;5019952;28;20050;-79